sensor_id;sensor_type;location;lat;lon;timestamp;P1;durP1;ratioP1;P2;durP2;ratioP2
47960;SDS011;33721;48.852;9.936;2023-02-19T00:01:00;11.57;;;5.45;;
47960;SDS011;33721;48.852;9.936;2023-02-19T00:03:30;10.40;;;5.55;;
47960;SDS011;33721;48.852;9.936;2023-02-19T00:05:56;8.77;;;5.22;;
47960;SDS011;33721;48.852;9.936;2023-02-19T00:08:25;10.68;;;5.32;;
47960;SDS011;33721;48.852;9.936;2023-02-19T00:10:50;9.80;;;5.57;;
47960;SDS011;33721;48.852;9.936;2023-02-19T00:13:17;10.30;;;5.35;;
47960;SDS011;33721;48.852;9.936;2023-02-19T00:15:43;11.55;;;5.75;;
47960;SDS011;33721;48.852;9.936;2023-02-19T00:18:08;9.35;;;5.07;;
47960;SDS011;33721;48.852;9.936;2023-02-19T00:20:34;9.25;;;5.40;;
47960;SDS011;33721;48.852;9.936;2023-02-19T00:22:59;8.50;;;4.82;;
47960;SDS011;33721;48.852;9.936;2023-02-19T00:25:25;9.32;;;5.43;;
47960;SDS011;33721;48.852;9.936;2023-02-19T00:27:51;7.55;;;4.40;;
47960;SDS011;33721;48.852;9.936;2023-02-19T00:30:16;9.63;;;4.78;;
47960;SDS011;33721;48.852;9.936;2023-02-19T00:32:42;7.57;;;4.63;;
47960;SDS011;33721;48.852;9.936;2023-02-19T00:35:07;8.82;;;4.75;;
47960;SDS011;33721;48.852;9.936;2023-02-19T00:37:33;8.65;;;4.80;;
47960;SDS011;33721;48.852;9.936;2023-02-19T00:39:58;8.23;;;4.53;;
47960;SDS011;33721;48.852;9.936;2023-02-19T00:42:24;8.63;;;4.72;;
47960;SDS011;33721;48.852;9.936;2023-02-19T00:44:50;9.25;;;5.03;;
47960;SDS011;33721;48.852;9.936;2023-02-19T00:47:15;8.82;;;4.88;;
47960;SDS011;33721;48.852;9.936;2023-02-19T00:49:41;10.73;;;4.90;;
47960;SDS011;33721;48.852;9.936;2023-02-19T00:52:07;9.45;;;5.05;;
47960;SDS011;33721;48.852;9.936;2023-02-19T00:54:32;9.43;;;5.38;;
47960;SDS011;33721;48.852;9.936;2023-02-19T00:56:58;14.20;;;4.97;;
47960;SDS011;33721;48.852;9.936;2023-02-19T00:59:23;8.48;;;4.90;;
47960;SDS011;33721;48.852;9.936;2023-02-19T01:01:49;9.57;;;5.03;;
47960;SDS011;33721;48.852;9.936;2023-02-19T01:04:14;9.15;;;5.13;;
47960;SDS011;33721;48.852;9.936;2023-02-19T01:06:40;10.88;;;5.70;;
47960;SDS011;33721;48.852;9.936;2023-02-19T01:09:06;11.13;;;5.85;;
47960;SDS011;33721;48.852;9.936;2023-02-19T01:11:32;9.18;;;5.15;;
47960;SDS011;33721;48.852;9.936;2023-02-19T01:13:58;9.98;;;5.40;;
47960;SDS011;33721;48.852;9.936;2023-02-19T01:16:24;9.75;;;5.72;;
47960;SDS011;33721;48.852;9.936;2023-02-19T01:18:51;11.70;;;5.75;;
47960;SDS011;33721;48.852;9.936;2023-02-19T01:21:21;11.18;;;6.57;;
47960;SDS011;33721;48.852;9.936;2023-02-19T01:23:50;12.85;;;6.50;;
47960;SDS011;33721;48.852;9.936;2023-02-19T01:26:17;14.68;;;7.28;;
47960;SDS011;33721;48.852;9.936;2023-02-19T01:28:48;14.30;;;7.78;;
47960;SDS011;33721;48.852;9.936;2023-02-19T01:31:23;14.45;;;8.05;;
47960;SDS011;33721;48.852;9.936;2023-02-19T01:33:53;15.25;;;7.72;;
47960;SDS011;33721;48.852;9.936;2023-02-19T01:36:20;16.77;;;7.95;;
47960;SDS011;33721;48.852;9.936;2023-02-19T01:38:46;16.17;;;8.13;;
47960;SDS011;33721;48.852;9.936;2023-02-19T01:41:14;16.98;;;8.45;;
47960;SDS011;33721;48.852;9.936;2023-02-19T01:46:35;14.93;;;7.97;;
47960;SDS011;33721;48.852;9.936;2023-02-19T01:51:46;15.40;;;7.55;;
47960;SDS011;33721;48.852;9.936;2023-02-19T01:54:14;16.02;;;7.00;;
47960;SDS011;33721;48.852;9.936;2023-02-19T01:56:42;14.50;;;7.45;;
47960;SDS011;33721;48.852;9.936;2023-02-19T01:59:10;14.20;;;7.57;;
47960;SDS011;33721;48.852;9.936;2023-02-19T02:01:36;12.32;;;7.05;;
47960;SDS011;33721;48.852;9.936;2023-02-19T02:04:04;12.23;;;7.10;;
47960;SDS011;33721;48.852;9.936;2023-02-19T02:07:14;13.63;;;7.70;;
47960;SDS011;33721;48.852;9.936;2023-02-19T02:09:22;13.27;;;7.40;;
47960;SDS011;33721;48.852;9.936;2023-02-19T02:12:10;13.85;;;7.28;;
47960;SDS011;33721;48.852;9.936;2023-02-19T02:14:38;14.05;;;7.43;;
47960;SDS011;33721;48.852;9.936;2023-02-19T02:17:25;13.98;;;6.85;;
47960;SDS011;33721;48.852;9.936;2023-02-19T02:20:57;13.57;;;6.65;;
47960;SDS011;33721;48.852;9.936;2023-02-19T02:23:03;12.40;;;6.95;;
47960;SDS011;33721;48.852;9.936;2023-02-19T02:31:50;11.10;;;6.03;;
47960;SDS011;33721;48.852;9.936;2023-02-19T02:34:24;14.23;;;6.28;;
47960;SDS011;33721;48.852;9.936;2023-02-19T02:36:54;11.18;;;5.95;;
47960;SDS011;33721;48.852;9.936;2023-02-19T02:39:22;11.88;;;6.20;;
47960;SDS011;33721;48.852;9.936;2023-02-19T02:41:54;11.18;;;6.15;;
47960;SDS011;33721;48.852;9.936;2023-02-19T02:44:40;13.13;;;5.80;;
47960;SDS011;33721;48.852;9.936;2023-02-19T02:47:27;13.57;;;5.93;;
47960;SDS011;33721;48.852;9.936;2023-02-19T02:50:06;13.90;;;6.07;;
47960;SDS011;33721;48.852;9.936;2023-02-19T02:52:36;12.32;;;6.05;;
47960;SDS011;33721;48.852;9.936;2023-02-19T02:55:24;11.32;;;5.97;;
47960;SDS011;33721;48.852;9.936;2023-02-19T02:57:53;13.73;;;6.18;;
47960;SDS011;33721;48.852;9.936;2023-02-19T03:00:19;10.07;;;5.55;;
47960;SDS011;33721;48.852;9.936;2023-02-19T03:02:46;11.32;;;5.85;;
47960;SDS011;33721;48.852;9.936;2023-02-19T03:05:15;14.00;;;5.40;;
47960;SDS011;33721;48.852;9.936;2023-02-19T03:08:05;11.77;;;6.47;;
47960;SDS011;33721;48.852;9.936;2023-02-19T03:10:38;10.30;;;5.25;;
47960;SDS011;33721;48.852;9.936;2023-02-19T03:13:12;12.13;;;5.95;;
47960;SDS011;33721;48.852;9.936;2023-02-19T03:16:01;12.20;;;5.47;;
47960;SDS011;33721;48.852;9.936;2023-02-19T03:18:53;11.20;;;5.82;;
47960;SDS011;33721;48.852;9.936;2023-02-19T03:21:41;13.27;;;6.00;;
47960;SDS011;33721;48.852;9.936;2023-02-19T03:24:09;12.82;;;6.30;;
47960;SDS011;33721;48.852;9.936;2023-02-19T03:26:55;11.90;;;6.05;;
47960;SDS011;33721;48.852;9.936;2023-02-19T03:29:24;11.30;;;6.22;;
47960;SDS011;33721;48.852;9.936;2023-02-19T03:31:55;11.63;;;5.65;;
47960;SDS011;33721;48.852;9.936;2023-02-19T03:34:32;12.20;;;6.30;;
47960;SDS011;33721;48.852;9.936;2023-02-19T03:37:12;13.40;;;6.55;;
47960;SDS011;33721;48.852;9.936;2023-02-19T03:39:42;11.32;;;5.80;;
47960;SDS011;33721;48.852;9.936;2023-02-19T03:42:14;9.98;;;5.28;;
47960;SDS011;33721;48.852;9.936;2023-02-19T03:50:07;9.50;;;4.80;;
47960;SDS011;33721;48.852;9.936;2023-02-19T03:53:02;10.32;;;5.22;;
47960;SDS011;33721;48.852;9.936;2023-02-19T03:58:26;10.73;;;4.78;;
47960;SDS011;33721;48.852;9.936;2023-02-19T04:01:06;10.07;;;5.32;;
47960;SDS011;33721;48.852;9.936;2023-02-19T04:03:37;9.05;;;4.82;;
47960;SDS011;33721;48.852;9.936;2023-02-19T04:06:11;8.00;;;4.68;;
47960;SDS011;33721;48.852;9.936;2023-02-19T04:08:41;9.27;;;4.43;;
47960;SDS011;33721;48.852;9.936;2023-02-19T04:11:09;9.82;;;4.45;;
47960;SDS011;33721;48.852;9.936;2023-02-19T04:13:37;6.85;;;4.07;;
47960;SDS011;33721;48.852;9.936;2023-02-19T04:16:09;8.65;;;4.18;;
47960;SDS011;33721;48.852;9.936;2023-02-19T04:18:40;7.28;;;3.80;;
47960;SDS011;33721;48.852;9.936;2023-02-19T04:21:09;7.95;;;4.18;;
47960;SDS011;33721;48.852;9.936;2023-02-19T04:23:36;5.53;;;3.58;;
47960;SDS011;33721;48.852;9.936;2023-02-19T04:26:06;5.63;;;2.80;;
47960;SDS011;33721;48.852;9.936;2023-02-19T04:28:33;5.13;;;2.80;;
47960;SDS011;33721;48.852;9.936;2023-02-19T04:30:59;5.10;;;2.78;;
47960;SDS011;33721;48.852;9.936;2023-02-19T04:33:25;6.13;;;2.58;;
47960;SDS011;33721;48.852;9.936;2023-02-19T04:35:51;3.85;;;2.22;;
47960;SDS011;33721;48.852;9.936;2023-02-19T04:38:16;4.82;;;2.10;;
47960;SDS011;33721;48.852;9.936;2023-02-19T04:40:42;3.58;;;1.73;;
47960;SDS011;33721;48.852;9.936;2023-02-19T04:43:08;2.53;;;1.30;;
47960;SDS011;33721;48.852;9.936;2023-02-19T04:45:35;2.70;;;1.52;;
47960;SDS011;33721;48.852;9.936;2023-02-19T04:48:01;2.17;;;1.17;;
47960;SDS011;33721;48.852;9.936;2023-02-19T04:50:27;2.08;;;1.00;;
47960;SDS011;33721;48.852;9.936;2023-02-19T04:52:53;1.80;;;0.82;;
47960;SDS011;33721;48.852;9.936;2023-02-19T04:55:18;2.25;;;1.20;;
47960;SDS011;33721;48.852;9.936;2023-02-19T04:57:44;0.95;;;0.68;;
47960;SDS011;33721;48.852;9.936;2023-02-19T05:00:10;1.20;;;0.68;;
47960;SDS011;33721;48.852;9.936;2023-02-19T05:02:36;1.05;;;0.65;;
47960;SDS011;33721;48.852;9.936;2023-02-19T05:05:01;0.93;;;0.40;;
47960;SDS011;33721;48.852;9.936;2023-02-19T05:07:28;0.93;;;0.55;;
47960;SDS011;33721;48.852;9.936;2023-02-19T05:09:53;1.52;;;0.85;;
47960;SDS011;33721;48.852;9.936;2023-02-19T05:12:19;1.05;;;0.55;;
47960;SDS011;33721;48.852;9.936;2023-02-19T05:14:45;1.58;;;0.50;;
47960;SDS011;33721;48.852;9.936;2023-02-19T05:17:10;1.10;;;0.50;;
47960;SDS011;33721;48.852;9.936;2023-02-19T05:19:36;1.02;;;0.55;;
47960;SDS011;33721;48.852;9.936;2023-02-19T05:22:01;0.75;;;0.40;;
47960;SDS011;33721;48.852;9.936;2023-02-19T05:24:27;0.73;;;0.40;;
47960;SDS011;33721;48.852;9.936;2023-02-19T05:26:53;1.00;;;0.52;;
47960;SDS011;33721;48.852;9.936;2023-02-19T05:29:19;0.80;;;0.50;;
47960;SDS011;33721;48.852;9.936;2023-02-19T05:31:45;1.73;;;0.90;;
47960;SDS011;33721;48.852;9.936;2023-02-19T05:34:11;1.27;;;0.55;;
47960;SDS011;33721;48.852;9.936;2023-02-19T05:36:37;1.65;;;0.60;;
47960;SDS011;33721;48.852;9.936;2023-02-19T05:39:03;2.95;;;0.80;;
47960;SDS011;33721;48.852;9.936;2023-02-19T05:41:30;1.00;;;0.70;;
47960;SDS011;33721;48.852;9.936;2023-02-19T05:43:56;1.00;;;0.50;;
47960;SDS011;33721;48.852;9.936;2023-02-19T05:46:23;1.52;;;0.68;;
47960;SDS011;33721;48.852;9.936;2023-02-19T05:48:50;1.02;;;0.60;;
47960;SDS011;33721;48.852;9.936;2023-02-19T05:51:17;1.70;;;0.77;;
47960;SDS011;33721;48.852;9.936;2023-02-19T05:53:45;0.98;;;0.68;;
47960;SDS011;33721;48.852;9.936;2023-02-19T05:56:53;1.33;;;0.70;;
47960;SDS011;33721;48.852;9.936;2023-02-19T05:59:16;1.70;;;0.80;;
47960;SDS011;33721;48.852;9.936;2023-02-19T06:01:50;1.13;;;0.80;;
47960;SDS011;33721;48.852;9.936;2023-02-19T06:06:44;2.40;;;1.25;;
47960;SDS011;33721;48.852;9.936;2023-02-19T06:09:11;2.88;;;1.50;;
47960;SDS011;33721;48.852;9.936;2023-02-19T06:11:37;2.85;;;1.60;;
47960;SDS011;33721;48.852;9.936;2023-02-19T06:14:03;2.50;;;1.20;;
47960;SDS011;33721;48.852;9.936;2023-02-19T06:16:29;2.42;;;1.20;;
47960;SDS011;33721;48.852;9.936;2023-02-19T06:18:57;2.05;;;1.10;;
47960;SDS011;33721;48.852;9.936;2023-02-19T06:21:23;3.42;;;1.17;;
47960;SDS011;33721;48.852;9.936;2023-02-19T06:23:49;1.85;;;1.20;;
47960;SDS011;33721;48.852;9.936;2023-02-19T06:26:16;2.38;;;1.08;;
47960;SDS011;33721;48.852;9.936;2023-02-19T06:28:47;2.80;;;1.10;;
47960;SDS011;33721;48.852;9.936;2023-02-19T06:31:14;2.88;;;1.30;;
47960;SDS011;33721;48.852;9.936;2023-02-19T06:33:41;1.48;;;0.95;;
47960;SDS011;33721;48.852;9.936;2023-02-19T06:36:09;2.00;;;1.10;;
47960;SDS011;33721;48.852;9.936;2023-02-19T06:38:37;2.83;;;1.17;;
47960;SDS011;33721;48.852;9.936;2023-02-19T06:41:04;2.65;;;1.25;;
47960;SDS011;33721;48.852;9.936;2023-02-19T06:43:31;2.20;;;1.10;;
47960;SDS011;33721;48.852;9.936;2023-02-19T06:45:58;1.80;;;1.10;;
47960;SDS011;33721;48.852;9.936;2023-02-19T06:48:25;2.30;;;1.13;;
47960;SDS011;33721;48.852;9.936;2023-02-19T06:50:51;2.08;;;1.00;;
47960;SDS011;33721;48.852;9.936;2023-02-19T06:53:17;1.92;;;0.90;;
47960;SDS011;33721;48.852;9.936;2023-02-19T06:55:43;1.95;;;0.98;;
47960;SDS011;33721;48.852;9.936;2023-02-19T06:58:08;1.60;;;0.82;;
47960;SDS011;33721;48.852;9.936;2023-02-19T07:00:34;2.72;;;0.90;;
47960;SDS011;33721;48.852;9.936;2023-02-19T07:03:00;2.28;;;1.23;;
47960;SDS011;33721;48.852;9.936;2023-02-19T07:05:25;2.15;;;1.05;;
47960;SDS011;33721;48.852;9.936;2023-02-19T07:07:51;1.40;;;0.70;;
47960;SDS011;33721;48.852;9.936;2023-02-19T07:10:17;3.53;;;0.80;;
47960;SDS011;33721;48.852;9.936;2023-02-19T07:12:43;1.20;;;0.70;;
47960;SDS011;33721;48.852;9.936;2023-02-19T07:15:08;1.73;;;0.88;;
47960;SDS011;33721;48.852;9.936;2023-02-19T07:17:34;2.55;;;0.98;;
47960;SDS011;33721;48.852;9.936;2023-02-19T07:20:00;1.88;;;0.93;;
47960;SDS011;33721;48.852;9.936;2023-02-19T07:22:26;2.10;;;0.85;;
47960;SDS011;33721;48.852;9.936;2023-02-19T07:24:51;3.33;;;1.02;;
47960;SDS011;33721;48.852;9.936;2023-02-19T07:27:17;3.08;;;1.20;;
47960;SDS011;33721;48.852;9.936;2023-02-19T07:29:43;2.03;;;0.80;;
47960;SDS011;33721;48.852;9.936;2023-02-19T07:32:08;1.25;;;0.68;;
47960;SDS011;33721;48.852;9.936;2023-02-19T07:34:34;1.23;;;0.80;;
47960;SDS011;33721;48.852;9.936;2023-02-19T07:37:00;1.23;;;0.55;;
47960;SDS011;33721;48.852;9.936;2023-02-19T07:39:26;1.40;;;0.57;;
47960;SDS011;33721;48.852;9.936;2023-02-19T07:41:51;1.17;;;0.50;;
47960;SDS011;33721;48.852;9.936;2023-02-19T07:44:17;1.33;;;0.60;;
47960;SDS011;33721;48.852;9.936;2023-02-19T07:46:43;1.15;;;0.60;;
47960;SDS011;33721;48.852;9.936;2023-02-19T07:49:08;1.27;;;0.75;;
47960;SDS011;33721;48.852;9.936;2023-02-19T07:51:34;1.40;;;0.70;;
47960;SDS011;33721;48.852;9.936;2023-02-19T07:54:00;1.33;;;0.65;;
47960;SDS011;33721;48.852;9.936;2023-02-19T07:56:26;1.48;;;0.80;;
47960;SDS011;33721;48.852;9.936;2023-02-19T07:58:53;1.92;;;0.90;;
47960;SDS011;33721;48.852;9.936;2023-02-19T08:01:19;2.20;;;1.00;;
47960;SDS011;33721;48.852;9.936;2023-02-19T08:04:05;2.50;;;0.95;;
47960;SDS011;33721;48.852;9.936;2023-02-19T08:06:31;2.65;;;1.17;;
47960;SDS011;33721;48.852;9.936;2023-02-19T08:08:57;2.35;;;1.00;;
47960;SDS011;33721;48.852;9.936;2023-02-19T08:11:22;2.63;;;1.45;;
47960;SDS011;33721;48.852;9.936;2023-02-19T08:14:06;2.97;;;1.00;;
47960;SDS011;33721;48.852;9.936;2023-02-19T08:16:32;5.28;;;1.50;;
47960;SDS011;33721;48.852;9.936;2023-02-19T08:18:58;3.28;;;1.67;;
47960;SDS011;33721;48.852;9.936;2023-02-19T08:21:24;3.17;;;1.55;;
47960;SDS011;33721;48.852;9.936;2023-02-19T08:23:49;2.83;;;1.50;;
47960;SDS011;33721;48.852;9.936;2023-02-19T08:26:15;3.28;;;1.75;;
47960;SDS011;33721;48.852;9.936;2023-02-19T08:28:41;3.78;;;1.70;;
47960;SDS011;33721;48.852;9.936;2023-02-19T08:31:08;3.38;;;1.67;;
47960;SDS011;33721;48.852;9.936;2023-02-19T08:33:35;3.42;;;1.60;;
47960;SDS011;33721;48.852;9.936;2023-02-19T08:36:05;3.88;;;1.70;;
47960;SDS011;33721;48.852;9.936;2023-02-19T08:38:33;3.22;;;1.75;;
47960;SDS011;33721;48.852;9.936;2023-02-19T08:41:04;3.05;;;1.60;;
47960;SDS011;33721;48.852;9.936;2023-02-19T08:43:31;3.05;;;1.55;;
47960;SDS011;33721;48.852;9.936;2023-02-19T08:45:57;3.28;;;1.48;;
47960;SDS011;33721;48.852;9.936;2023-02-19T08:48:22;4.22;;;1.98;;
47960;SDS011;33721;48.852;9.936;2023-02-19T08:50:52;4.35;;;2.13;;
47960;SDS011;33721;48.852;9.936;2023-02-19T08:53:22;4.22;;;1.92;;
47960;SDS011;33721;48.852;9.936;2023-02-19T08:55:48;4.90;;;2.00;;
47960;SDS011;33721;48.852;9.936;2023-02-19T08:58:14;4.82;;;2.05;;
47960;SDS011;33721;48.852;9.936;2023-02-19T09:00:39;4.20;;;2.00;;
47960;SDS011;33721;48.852;9.936;2023-02-19T09:03:05;5.65;;;1.80;;
47960;SDS011;33721;48.852;9.936;2023-02-19T09:05:34;4.80;;;2.13;;
47960;SDS011;33721;48.852;9.936;2023-02-19T09:08:00;5.72;;;2.28;;
47960;SDS011;33721;48.852;9.936;2023-02-19T09:10:25;3.40;;;1.90;;
47960;SDS011;33721;48.852;9.936;2023-02-19T09:12:51;3.80;;;1.92;;
47960;SDS011;33721;48.852;9.936;2023-02-19T09:15:18;5.10;;;1.90;;
47960;SDS011;33721;48.852;9.936;2023-02-19T09:17:43;5.18;;;1.92;;
47960;SDS011;33721;48.852;9.936;2023-02-19T09:20:09;3.78;;;2.00;;
47960;SDS011;33721;48.852;9.936;2023-02-19T09:22:35;5.78;;;1.92;;
47960;SDS011;33721;48.852;9.936;2023-02-19T09:25:01;4.05;;;2.08;;
47960;SDS011;33721;48.852;9.936;2023-02-19T09:27:26;6.35;;;2.35;;
47960;SDS011;33721;48.852;9.936;2023-02-19T09:29:52;7.38;;;2.35;;
47960;SDS011;33721;48.852;9.936;2023-02-19T09:32:19;5.47;;;1.98;;
47960;SDS011;33721;48.852;9.936;2023-02-19T09:34:44;4.80;;;1.88;;
47960;SDS011;33721;48.852;9.936;2023-02-19T09:37:10;5.57;;;1.95;;
47960;SDS011;33721;48.852;9.936;2023-02-19T09:39:36;4.97;;;1.80;;
47960;SDS011;33721;48.852;9.936;2023-02-19T09:44:40;5.00;;;2.00;;
47960;SDS011;33721;48.852;9.936;2023-02-19T09:47:12;4.75;;;2.00;;
47960;SDS011;33721;48.852;9.936;2023-02-19T09:49:42;3.65;;;1.88;;
47960;SDS011;33721;48.852;9.936;2023-02-19T09:54:42;6.20;;;1.70;;
47960;SDS011;33721;48.852;9.936;2023-02-19T09:57:13;3.65;;;1.42;;
47960;SDS011;33721;48.852;9.936;2023-02-19T09:59:48;3.00;;;1.50;;
47960;SDS011;33721;48.852;9.936;2023-02-19T10:02:24;5.68;;;1.85;;
47960;SDS011;33721;48.852;9.936;2023-02-19T10:04:51;4.88;;;1.80;;
47960;SDS011;33721;48.852;9.936;2023-02-19T10:07:23;3.20;;;1.38;;
47960;SDS011;33721;48.852;9.936;2023-02-19T10:09:56;4.00;;;1.25;;
47960;SDS011;33721;48.852;9.936;2023-02-19T10:12:32;5.10;;;1.30;;
47960;SDS011;33721;48.852;9.936;2023-02-19T10:15:09;3.25;;;1.65;;
47960;SDS011;33721;48.852;9.936;2023-02-19T10:17:40;3.60;;;1.55;;
47960;SDS011;33721;48.852;9.936;2023-02-19T10:20:09;6.47;;;1.90;;
47960;SDS011;33721;48.852;9.936;2023-02-19T10:22:48;3.17;;;1.58;;
47960;SDS011;33721;48.852;9.936;2023-02-19T10:27:44;6.43;;;2.28;;
47960;SDS011;33721;48.852;9.936;2023-02-19T10:30:19;3.40;;;1.42;;
47960;SDS011;33721;48.852;9.936;2023-02-19T10:32:59;3.25;;;1.45;;
47960;SDS011;33721;48.852;9.936;2023-02-19T10:35:37;6.07;;;1.50;;
47960;SDS011;33721;48.852;9.936;2023-02-19T10:38:14;5.82;;;1.60;;
47960;SDS011;33721;48.852;9.936;2023-02-19T10:40:45;4.28;;;1.35;;
47960;SDS011;33721;48.852;9.936;2023-02-19T10:43:21;2.93;;;1.20;;
47960;SDS011;33721;48.852;9.936;2023-02-19T10:45:55;5.38;;;1.50;;
47960;SDS011;33721;48.852;9.936;2023-02-19T10:48:29;3.53;;;1.38;;
47960;SDS011;33721;48.852;9.936;2023-02-19T10:50:59;3.42;;;1.80;;
47960;SDS011;33721;48.852;9.936;2023-02-19T10:56:07;4.57;;;1.30;;
47960;SDS011;33721;48.852;9.936;2023-02-19T10:58:37;4.40;;;1.42;;
47960;SDS011;33721;48.852;9.936;2023-02-19T11:01:11;4.97;;;1.40;;
47960;SDS011;33721;48.852;9.936;2023-02-19T11:03:39;2.85;;;1.42;;
47960;SDS011;33721;48.852;9.936;2023-02-19T11:06:06;5.90;;;1.65;;
47960;SDS011;33721;48.852;9.936;2023-02-19T11:11:39;5.40;;;1.70;;
47960;SDS011;33721;48.852;9.936;2023-02-19T11:14:12;3.33;;;1.48;;
47960;SDS011;33721;48.852;9.936;2023-02-19T11:16:47;4.32;;;1.20;;
47960;SDS011;33721;48.852;9.936;2023-02-19T11:19:20;4.53;;;1.10;;
47960;SDS011;33721;48.852;9.936;2023-02-19T11:21:47;7.10;;;1.38;;
47960;SDS011;33721;48.852;9.936;2023-02-19T11:24:20;3.88;;;1.15;;
47960;SDS011;33721;48.852;9.936;2023-02-19T11:26:53;5.93;;;1.60;;
47960;SDS011;33721;48.852;9.936;2023-02-19T11:29:20;6.13;;;1.15;;
47960;SDS011;33721;48.852;9.936;2023-02-19T11:31:48;5.05;;;1.23;;
47960;SDS011;33721;48.852;9.936;2023-02-19T11:36:45;7.38;;;1.73;;
47960;SDS011;33721;48.852;9.936;2023-02-19T11:50:21;4.72;;;1.42;;
47960;SDS011;33721;48.852;9.936;2023-02-19T12:01:18;3.30;;;1.35;;
47960;SDS011;33721;48.852;9.936;2023-02-19T12:06:34;3.72;;;1.25;;
47960;SDS011;33721;48.852;9.936;2023-02-19T12:17:31;7.93;;;1.23;;
47960;SDS011;33721;48.852;9.936;2023-02-19T12:25:47;2.38;;;0.90;;
47960;SDS011;33721;48.852;9.936;2023-02-19T12:28:34;3.83;;;1.15;;
47960;SDS011;33721;48.852;9.936;2023-02-19T12:45:15;3.78;;;0.90;;
47960;SDS011;33721;48.852;9.936;2023-02-19T12:47:46;6.50;;;1.30;;
47960;SDS011;33721;48.852;9.936;2023-02-19T12:50:39;4.32;;;1.00;;
47960;SDS011;33721;48.852;9.936;2023-02-19T12:55:53;7.20;;;1.30;;
47960;SDS011;33721;48.852;9.936;2023-02-19T12:58:27;3.53;;;1.30;;
47960;SDS011;33721;48.852;9.936;2023-02-19T13:00:56;4.85;;;1.52;;
47960;SDS011;33721;48.852;9.936;2023-02-19T13:06:29;4.63;;;1.10;;
47960;SDS011;33721;48.852;9.936;2023-02-19T13:09:13;5.38;;;1.30;;
47960;SDS011;33721;48.852;9.936;2023-02-19T13:14:36;5.10;;;1.25;;
47960;SDS011;33721;48.852;9.936;2023-02-19T13:17:35;3.03;;;1.20;;
47960;SDS011;33721;48.852;9.936;2023-02-19T13:20:42;4.72;;;1.20;;
47960;SDS011;33721;48.852;9.936;2023-02-19T13:23:12;3.78;;;1.42;;
47960;SDS011;33721;48.852;9.936;2023-02-19T13:34:44;2.58;;;1.02;;
47960;SDS011;33721;48.852;9.936;2023-02-19T13:37:33;2.85;;;1.10;;
47960;SDS011;33721;48.852;9.936;2023-02-19T13:40:02;5.82;;;1.13;;
47960;SDS011;33721;48.852;9.936;2023-02-19T13:42:55;6.50;;;1.27;;
47960;SDS011;33721;48.852;9.936;2023-02-19T13:45:39;2.55;;;1.20;;
47960;SDS011;33721;48.852;9.936;2023-02-19T13:50:48;8.07;;;1.60;;
47960;SDS011;33721;48.852;9.936;2023-02-19T14:17:42;8.32;;;1.73;;
47960;SDS011;33721;48.852;9.936;2023-02-19T14:30:32;4.93;;;1.27;;
47960;SDS011;33721;48.852;9.936;2023-02-19T14:32:59;3.05;;;1.20;;
47960;SDS011;33721;48.852;9.936;2023-02-19T14:35:37;3.35;;;0.95;;
47960;SDS011;33721;48.852;9.936;2023-02-19T14:38:05;4.32;;;1.20;;
47960;SDS011;33721;48.852;9.936;2023-02-19T14:40:35;3.42;;;1.33;;
47960;SDS011;33721;48.852;9.936;2023-02-19T14:43:05;5.20;;;1.40;;
47960;SDS011;33721;48.852;9.936;2023-02-19T14:45:42;2.58;;;1.40;;
47960;SDS011;33721;48.852;9.936;2023-02-19T14:48:16;5.80;;;2.00;;
47960;SDS011;33721;48.852;9.936;2023-02-19T14:51:36;4.05;;;1.50;;
47960;SDS011;33721;48.852;9.936;2023-02-19T14:54:05;6.80;;;1.73;;
47960;SDS011;33721;48.852;9.936;2023-02-19T14:56:51;4.85;;;1.90;;
47960;SDS011;33721;48.852;9.936;2023-02-19T14:59:28;4.15;;;1.48;;
47960;SDS011;33721;48.852;9.936;2023-02-19T15:02:01;8.02;;;1.55;;
47960;SDS011;33721;48.852;9.936;2023-02-19T15:04:29;7.75;;;1.70;;
47960;SDS011;33721;48.852;9.936;2023-02-19T15:07:01;6.13;;;1.50;;
47960;SDS011;33721;48.852;9.936;2023-02-19T15:09:36;5.72;;;1.65;;
47960;SDS011;33721;48.852;9.936;2023-02-19T15:12:06;4.50;;;1.55;;
47960;SDS011;33721;48.852;9.936;2023-02-19T15:14:38;3.78;;;1.60;;
47960;SDS011;33721;48.852;9.936;2023-02-19T15:17:04;4.45;;;1.38;;
47960;SDS011;33721;48.852;9.936;2023-02-19T15:19:34;7.00;;;1.90;;
47960;SDS011;33721;48.852;9.936;2023-02-19T15:22:01;3.92;;;1.70;;
47960;SDS011;33721;48.852;9.936;2023-02-19T15:24:27;6.05;;;2.00;;
47960;SDS011;33721;48.852;9.936;2023-02-19T15:26:53;3.35;;;1.73;;
47960;SDS011;33721;48.852;9.936;2023-02-19T15:29:22;6.28;;;2.03;;
47960;SDS011;33721;48.852;9.936;2023-02-19T15:31:59;7.72;;;2.20;;
47960;SDS011;33721;48.852;9.936;2023-02-19T15:34:27;4.65;;;1.90;;
47960;SDS011;33721;48.852;9.936;2023-02-19T15:36:59;4.90;;;1.83;;
47960;SDS011;33721;48.852;9.936;2023-02-19T15:39:48;6.53;;;2.55;;
47960;SDS011;33721;48.852;9.936;2023-02-19T15:42:19;3.97;;;1.95;;
47960;SDS011;33721;48.852;9.936;2023-02-19T15:44:53;8.45;;;2.88;;
47960;SDS011;33721;48.852;9.936;2023-02-19T15:50:22;4.90;;;2.08;;
47960;SDS011;33721;48.852;9.936;2023-02-19T15:52:57;10.65;;;2.80;;
47960;SDS011;33721;48.852;9.936;2023-02-19T15:58:26;10.13;;;2.13;;
47960;SDS011;33721;48.852;9.936;2023-02-19T16:01:00;5.90;;;1.92;;
47960;SDS011;33721;48.852;9.936;2023-02-19T16:03:43;6.90;;;2.17;;
47960;SDS011;33721;48.852;9.936;2023-02-19T16:08:38;9.32;;;2.50;;
47960;SDS011;33721;48.852;9.936;2023-02-19T16:11:05;9.80;;;2.78;;
47960;SDS011;33721;48.852;9.936;2023-02-19T16:13:51;9.68;;;2.50;;
47960;SDS011;33721;48.852;9.936;2023-02-19T16:16:38;7.95;;;2.78;;
47960;SDS011;33721;48.852;9.936;2023-02-19T16:19:06;9.18;;;2.80;;
47960;SDS011;33721;48.852;9.936;2023-02-19T16:21:33;6.95;;;2.50;;
47960;SDS011;33721;48.852;9.936;2023-02-19T16:24:11;9.05;;;2.58;;
47960;SDS011;33721;48.852;9.936;2023-02-19T16:26:43;7.22;;;2.58;;
47960;SDS011;33721;48.852;9.936;2023-02-19T16:29:19;5.88;;;2.88;;
47960;SDS011;33721;48.852;9.936;2023-02-19T16:31:49;7.43;;;2.40;;
47960;SDS011;33721;48.852;9.936;2023-02-19T16:34:25;11.48;;;2.80;;
47960;SDS011;33721;48.852;9.936;2023-02-19T16:37:03;6.25;;;2.33;;
47960;SDS011;33721;48.852;9.936;2023-02-19T16:42:36;9.45;;;2.45;;
47960;SDS011;33721;48.852;9.936;2023-02-19T16:45:08;6.93;;;2.50;;
47960;SDS011;33721;48.852;9.936;2023-02-19T16:47:35;7.95;;;2.67;;
47960;SDS011;33721;48.852;9.936;2023-02-19T16:50:06;9.88;;;2.53;;
47960;SDS011;33721;48.852;9.936;2023-02-19T16:52:37;8.35;;;3.17;;
47960;SDS011;33721;48.852;9.936;2023-02-19T16:55:15;8.00;;;2.67;;
47960;SDS011;33721;48.852;9.936;2023-02-19T16:57:40;10.88;;;2.95;;
47960;SDS011;33721;48.852;9.936;2023-02-19T17:00:06;9.25;;;2.80;;
47960;SDS011;33721;48.852;9.936;2023-02-19T17:02:32;7.85;;;2.80;;
47960;SDS011;33721;48.852;9.936;2023-02-19T17:04:58;7.65;;;2.85;;
47960;SDS011;33721;48.852;9.936;2023-02-19T17:07:24;8.50;;;2.97;;
47960;SDS011;33721;48.852;9.936;2023-02-19T17:09:51;6.55;;;2.67;;
47960;SDS011;33721;48.852;9.936;2023-02-19T17:12:17;8.65;;;2.92;;
47960;SDS011;33721;48.852;9.936;2023-02-19T17:14:44;9.23;;;2.97;;
47960;SDS011;33721;48.852;9.936;2023-02-19T17:17:09;9.15;;;2.55;;
47960;SDS011;33721;48.852;9.936;2023-02-19T17:19:35;16.30;;;2.80;;
47960;SDS011;33721;48.852;9.936;2023-02-19T17:22:03;9.82;;;2.80;;
47960;SDS011;33721;48.852;9.936;2023-02-19T17:24:28;6.85;;;2.80;;
47960;SDS011;33721;48.852;9.936;2023-02-19T17:26:54;7.18;;;2.50;;
47960;SDS011;33721;48.852;9.936;2023-02-19T17:29:20;9.90;;;3.10;;
47960;SDS011;33721;48.852;9.936;2023-02-19T17:31:46;10.00;;;2.85;;
47960;SDS011;33721;48.852;9.936;2023-02-19T17:34:11;7.75;;;2.25;;
47960;SDS011;33721;48.852;9.936;2023-02-19T17:36:37;10.77;;;2.50;;
47960;SDS011;33721;48.852;9.936;2023-02-19T17:39:03;5.00;;;2.13;;